• Join FlightAware (Why Join?)
  • Login
  • US Flag 
06:09AM EDT


 

Airport Tracker/Info


-or-


 

Live Flight TrackerFlight Track Log ✈ AAY894 ✈ 22-Jun-2014 ✈ KPIE - KIAG

Flight Track Log - Related Links

Times and Time Zones

All times are in EDT time to prevent confusion due to time zone crossing. See the AAY894 flight status page for this flight to view local times or setup timezone preferences in your user account.

Time Position Orientation Groundspeed Altitude Reporting Facility
EDT Latitude Longitude Course Direction KTS MPH feet Rate Location/Type
07:38AM 27.9000 -82.6833 190° South 164 189 900  Level Tampa TRACON
07:39AM 27.8167 -82.7000 190° South 217 250 3,700 1,800 Climbing Tampa TRACON
07:41AM 27.8333 -82.7833 283° West 281 323 5,700 2,160 Climbing Tampa TRACON
07:42AM 27.9600 -82.7728 North 277 319 9,900 2,160 Climbing Jacksonville Center
07:43AM 28.0433 -82.7561 10° North 293 337 11,700 1,500 Climbing Jacksonville Center
07:44AM 28.1478 -82.7394 North 331 381 13,000 1,680 Climbing Jacksonville Center
07:45AM 28.2561 -82.7275 North 371 427 15,100 2,340 Climbing Jacksonville Center
07:46AM 28.3794 -82.7181 North 391 450 17,700 2,700 Climbing Jacksonville Center
07:47AM 28.4858 -82.7083 North 391 450 20,600 2,160 Climbing Jacksonville Center
07:48AM 28.5942 -82.7011 North 385 443 22,100 1,560 Climbing Jacksonville Center
07:49AM 28.7028 -82.6914 North 385 443 23,800 1,500 Climbing Jacksonville Center
07:50AM 28.8133 -82.6842 North 390 449 25,100 1,080 Climbing Jacksonville Center
07:51AM 28.9303 -82.6719 North 397 457 26,000 1,140 Climbing Jacksonville Center
07:52AM 29.0472 -82.6644 North 409 471 27,400 900 Climbing Jacksonville Center
07:53AM 29.1619 -82.6547 North 409 471 27,800 360 Climbing Jacksonville Center
07:54AM 29.2808 -82.6450 North 409 471 28,200 420 Climbing Jacksonville Center
07:55AM 29.4042 -82.6375 North 425 489 28,700 720 Climbing Jacksonville Center
07:56AM 29.5250 -82.6014 15° North 437 503 29,700 900 Climbing Jacksonville Center
07:57AM 29.6419 -82.5581 18° North 437 503 30,500 600 Climbing Jacksonville Center
07:58AM 29.7650 -82.5217 14° North 442 509 30,900 240 Climbing Jacksonville Center
07:59AM 29.8881 -82.5189 North 437 503 31,000  Climbing Jacksonville Center
08:00AM 30.0133 -82.5208 359° North 437 503 31,000 -60 Level Jacksonville Center
08:01AM 30.1239 -82.5228 359° North 437 503 30,900 -60 Descending Jacksonville Center
08:02AM 30.2492 -82.5222 360° North 437 503 30,900  Level Jacksonville Center
08:03AM 30.3683 -82.5217 360° North 437 503 31,000  Climbing Jacksonville Center
08:04AM 30.4894 -82.5189 North 431 496 30,900 180 Descending Jacksonville Center
08:05AM 30.6106 -82.5208 359° North 431 496 31,400 900 Climbing Jacksonville Center
08:06AM 30.7275 -82.5203 360° North 431 496 32,800 780 Climbing Jacksonville Center
08:07AM 30.8464 -82.5175 North 420 483 33,000  Climbing Jacksonville Center
08:08AM 30.9675 -82.5169 360° North 420 483 32,900 -60 Descending Jacksonville Center
08:09AM 31.0906 -82.5142 North 425 489 32,900  Level Jacksonville Center
08:10AM 31.2117 -82.5136 360° North 430 495 33,000  Climbing Jacksonville Center
08:11AM 31.3308 -82.5156 359° North 430 495 32,900  Descending Jacksonville Center
08:12AM 31.4561 -82.5078 North 430 495 33,000  Climbing Jacksonville Center
08:13AM 31.5772 -82.5025 North 430 495 33,000  Level Jacksonville Center
08:14AM 31.6961 -82.4822 North 436 502 33,000  Level Jacksonville Center
08:16AM 31.8639 -82.4567 North 435 501 33,000  Level Atlanta Center
08:17AM 31.9844 -82.4350 North 440 506 33,000  Level Atlanta Center
08:18AM 32.1075 -82.4181 North 440 506 33,000  Level Atlanta Center
08:19AM 32.2325 -82.3986 North 446 513 33,000  Level Atlanta Center
08:20AM 32.3386 -82.3819 North 440 506 33,000  Level Atlanta Center
08:21AM 32.4575 -82.3625 North 435 501 33,000  Level Atlanta Center
08:22AM 32.5781 -82.3428 North 435 501 33,000  Level Atlanta Center
08:23AM 32.7031 -82.3233 North 435 501 33,000  Level Atlanta Center
08:24AM 32.8219 -82.3036 North 440 506 33,000  Level Atlanta Center
08:25AM 32.9428 -82.2864 North 440 506 33,000  Level Atlanta Center
08:26AM 33.0656 -82.2664 North 440 506 33,000  Level Atlanta Center
08:27AM 33.1883 -82.2467 North 440 506 33,000  Level Atlanta Center
08:28AM 33.3258 -82.2214 North 446 513 33,000  Level Atlanta Center
08:29AM 33.4486 -82.2014 North 441 507 33,000  Level Atlanta Center
08:30AM 33.5714 -82.1814 North 441 507 33,000  Level Atlanta Center
08:31AM 33.6964 -82.1586 North 441 507 33,000  Level Atlanta Center
08:32AM 33.8214 -82.1383 North 447 514 33,000  Level Atlanta Center
08:33AM 33.9442 -82.1158 North 447 514 33,000  Level Atlanta Center
08:34AM 34.0669 -82.0978 North 442 509 33,000  Level Atlanta Center
08:35AM 34.1814 -82.0753 North 448 516 33,000  Level Atlanta Center
08:36AM 34.3019 -82.0547 North 443 510 33,000  Level Atlanta Center
08:37AM 34.4250 -82.0367 North 443 510 33,000  Level Atlanta Center
08:38AM 34.5456 -82.0136 North 443 510 33,000  Level Atlanta Center
08:39AM 34.6706 -81.9931 North 443 510 33,000  Level Atlanta Center
08:40AM 34.7931 -81.9622 12° North 443 510 33,000  Level Atlanta Center
08:41AM 34.9136 -81.9339 11° North 443 510 33,000  Level Atlanta Center
08:42AM 35.0342 -81.9031 12° North 438 504 33,000  Level Atlanta Center
08:43AM 35.1544 -81.8694 13° North 438 504 33,000  Level Atlanta Center
08:44AM 35.2772 -81.8381 12° North 438 504 33,000  Level Atlanta Center
08:45AM 35.3994 -81.8042 13° North 443 510 33,000  Level Atlanta Center
08:46AM 35.5222 -81.7728 12° North 448 516 33,000  Level Atlanta Center
08:47AM 35.6444 -81.7389 13° North 448 516 33,000  Level Atlanta Center
08:48AM 35.7669 -81.7047 13° North 448 516 33,000  Level Atlanta Center
08:49AM 35.8875 -81.6731 12° North 448 516 33,000  Level Atlanta Center
08:50AM 36.0056 -81.6386 13° North 442 509 33,000  Level Atlanta Center
08:51AM 36.1197 -81.6072 13° North 436 502 33,000  Level Atlanta Center
08:52AM 36.2461 -81.5697 13° North 425 489 33,000  Level Atlanta Center
08:53AM 36.3644 -81.5353 13° North 425 489 33,000  Level Atlanta Center
08:54AM 36.4825 -81.5031 12° North 430 495 33,000  Level Atlanta Center
08:55AM 36.5986 -81.4711 12° North 430 495 33,000  Level Atlanta Center
08:56AM 36.7964 -81.4147 13° North 431 496 33,000  Level Indianapolis Center
08:57AM 36.9125 -81.3808 13° North 431 496 33,000  Level Indianapolis Center
08:58AM 37.0428 -81.3444 13° North 430 495 33,000  Level Indianapolis Center
08:59AM 37.1606 -81.3108 13° North 430 495 33,000  Level Indianapolis Center
09:00AM 37.2775 -81.2767 13° North 430 495 33,000  Level Indianapolis Center
09:01AM 37.4028 -81.2372 14° North 430 495 33,000  Level Indianapolis Center
09:03AM 37.5214 -81.2022 13° North 431 496 33,000  Level Indianapolis Center
09:04AM 37.6453 -81.1683 12° North 444 511 33,000  Level Indianapolis Center
09:05AM 37.7622 -81.1339 13° North 438 504 33,000  Level Indianapolis Center
09:06AM 37.8864 -81.0972 13° North 436 502 33,000  Level Indianapolis Center
09:07AM 38.0039 -81.0625 13° North 436 502 33,000  Level Indianapolis Center
09:08AM 38.1225 -81.0300 12° North 436 502 33,000  Level Indianapolis Center
09:09AM 38.2392 -80.9956 13° North 436 502 33,000  Level Indianapolis Center
09:10AM 38.3814 -80.9547 13° North 435 501 33,000  Level Indianapolis Center
09:11AM 38.4997 -80.9197 13° North 436 502 33,000  Level Indianapolis Center
09:12AM 38.6189 -80.8850 13° North 436 502 33,000  Level Indianapolis Center
09:13AM 38.7381 -80.8500 13° North 438 504 33,000  Level Indianapolis Center
09:14AM 38.8575 -80.8139 13° North 439 505 33,000  Level Indianapolis Center
09:15AM 38.9786 -80.7775 13° North 444 511 33,000  Level Indianapolis Center
09:16AM 39.0967 -80.7433 13° North 443 510 33,000  Level Indianapolis Center
09:17AM 39.2369 -80.7008 13° North 438 504 33,000  Level Indianapolis Center
09:18AM 39.3522 -80.6650 14° North 432 497 33,000  Level Indianapolis Center
09:19AM 39.5006 -80.6061 17° North 430 495 33,000  Level Cleveland Center
09:20AM 39.6156 -80.5583 18° North 430 495 33,000  Level Cleveland Center
09:21AM 39.7294 -80.5072 19° North 432 497 33,000  Level Cleveland Center
09:22AM 39.8450 -80.4550 19° North 440 506 33,000  Level Cleveland Center
09:23AM 39.9606 -80.4039 19° North 440 506 33,000  Level Cleveland Center
09:24AM 40.0761 -80.3536 18° North 439 505 33,000  Level Cleveland Center
09:25AM 40.1925 -80.3025 19° North 440 506 33,000 -180 Level Cleveland Center
09:26AM 40.3328 -80.2408 19° North 441 507 32,700 -900 Descending Cleveland Center
09:27AM 40.4533 -80.1856 19° North 440 506 31,200 -840 Descending Cleveland Center
09:28AM 40.5717 -80.1342 18° North 443 510 31,000 -120 Descending Cleveland Center
09:30AM 40.6856 -80.0825 19° North 437 503 31,000 -120 Level Cleveland Center
09:31AM 40.8000 -80.0311 19° North 437 503 30,800 -1,020 Descending Cleveland Center
09:32AM 40.9219 -79.9764 19° North 438 504 29,000 -1,740 Descending Cleveland Center
09:33AM 41.0381 -79.9233 19° North 439 505 27,300 -1,260 Descending Cleveland Center
09:34AM 41.1483 -79.8717 19° North 440 506 26,500 -1,080 Descending Cleveland Center
09:35AM 41.2822 -79.8103 19° North 430 495 25,100 -1,260 Descending Cleveland Center
09:36AM 41.3861 -79.7619 19° North 406 467 24,000 -540 Descending Cleveland Center
09:37AM 41.4853 -79.7150 20° North 385 443 24,000  Level Cleveland Center
09:38AM 41.5839 -79.6697 19° North 380 437 24,000  Level Cleveland Center
09:39AM 41.6839 -79.6256 18° North 379 436 24,000  Level Cleveland Center
09:40AM 41.7817 -79.5756 21° North 379 436 24,000 -60 Level Cleveland Center
09:41AM 41.8997 -79.5211 19° North 379 436 23,900 -840 Descending Cleveland Center
09:42AM 41.9967 -79.4767 19° North 374 430 22,400 -1,740 Descending Cleveland Center
09:43AM 42.0919 -79.4319 19° North 367 422 20,400 -2,100 Descending Cleveland Center
09:44AM 42.1853 -79.3883 19° North 360 414 18,100 -2,220 Descending Cleveland Center
09:45AM 42.2778 -79.3436 20° North 358 412 15,900 -2,220 Descending Cleveland Center
09:46AM 42.3689 -79.3003 19° North 354 407 13,600 -2,280 Descending Cleveland Center
09:47AM 42.4608 -79.2567 19° North 345 397 11,300 -1,320 Descending Cleveland Center
09:48AM 42.5453 -79.2164 19° North 323 372 11,000 -180 Descending Cleveland Center
09:49AM 42.6189 -79.1808 20° North 286 329 11,000  Level Cleveland Center
09:50AM 42.7017 -79.1114 32° Northeast 293 337 11,000 -720 Level Cleveland Center
09:51AM 42.7672 -79.0533 33° Northeast 281 323 9,600 -1,500 Descending Cleveland Center
09:52AM 42.8347 -78.9975 31° Northeast 276 318 8,000 -1,620 Descending Cleveland Center
09:53AM 42.8958 -78.9483 31° Northeast 269 310 6,400 -1,020 Descending Cleveland Center
09:54AM 42.9600 -78.9006 29° Northeast 255 293 6,000 -720 Descending Cleveland Center
09:55AM 43.0133 -78.8608 29° Northeast 217 250 5,000 -1,320 Descending Cleveland Center
09:56AM 43.0581 -78.8158 36° Northeast 199 229 3,300 -1,560 Descending Cleveland Center
09:57AM 43.1069 -78.8325 346° North 193 222 1,900 -960 Descending Cleveland Center
09:58AM 43.1089 -78.8833 273° West 171 197 1,400 -540 Descending Cleveland Center
10:00AM 43.1000 -78.9333 297° West  Level FlightAware Approximate